»·PEaware :: N6515D KEMT-KSAN

N6515D :: KEMT-KSAN

FLIGHT INFORMATION

Flight Status: Arrived
Operator: Privately registered:
United States
More flights under this callsign
Pilot: Charles S. (11412)
Aircraft: Unknown
(DA62)
More flights by this aircraft type
Origin: KEMT El Monte
United States
Destination: KSAN San Diego Intl-Lindbergh
United States
More flights between these airports :: More routes between these airports
Route: +PDZ V186 HAILE V66 MZB
File this flight plan on PilotEdge
Remarks:
Altitude:
(Current/Filed)
9,000ft
Speed:
(Current/Filed)
160kts
Departed: 16-Oct-18 05:09 PM
Arrived: 16-Oct-18 05:57 PM
Distance/Time
Traveled:
92nm/0:48
Distance/Time
To Go:
Arrived

Flight Plot

Page will automatically refresh every two minutes.


Map Options




Map Legend


Flown Route
Filed Route
Departure Airport
Arrival Airport
Navaid (VOR, NDB)
Fix

Horizontal Profiles

Position Reports

Time Latitude Longitude Heading Altitude Ground
Speed
16-Oct-18 17:01 34.085377 -118.033104 26 290ft 0kts
16-Oct-18 17:02 34.085377 -118.033104 26 290ft 0kts
16-Oct-18 17:03 34.085377 -118.033104 26 290ft 0kts
16-Oct-18 17:04 34.085377 -118.033104 26 290ft 0kts
16-Oct-18 17:05 34.085377 -118.033104 26 290ft 0kts
16-Oct-18 17:06 34.085377 -118.033104 26 290ft 0kts
16-Oct-18 17:07 34.085377 -118.033104 26 290ft 0kts
16-Oct-18 17:08 34.085377 -118.033104 26 290ft 0kts
16-Oct-18 17:09 34.085679 -118.033583 290 289ft 16kts
16-Oct-18 17:10 34.089993 -118.031932 26 295ft 18kts
16-Oct-18 17:11 34.086401 -118.034625 206 287ft 80kts
16-Oct-18 17:12 34.061569 -118.046314 202 1004ft 109kts
16-Oct-18 17:13 34.032499 -118.047857 121 1920ft 127kts
16-Oct-18 17:14 34.034790 -118.005168 80 2840ft 133kts
16-Oct-18 17:15 34.039782 -117.960422 79 3749ft 136kts
16-Oct-18 17:16 34.044137 -117.915079 79 4656ft 136kts
16-Oct-18 17:17 34.037305 -117.870325 107 5516ft 143kts
16-Oct-18 17:18 34.022134 -117.825877 107 6326ft 144kts
16-Oct-18 17:19 34.006551 -117.780962 106 7019ft 153kts
16-Oct-18 17:20 33.988500 -117.729129 107 7028ft 178kts
16-Oct-18 17:21 33.968728 -117.673242 106 7026ft 183kts
16-Oct-18 17:22 33.948934 -117.616518 107 7028ft 185kts
16-Oct-18 17:23 33.928959 -117.559503 106 7031ft 186kts
16-Oct-18 17:24 33.897427 -117.512456 140 7032ft 194kts
16-Oct-18 17:25 33.853394 -117.475289 139 7083ft 190kts
16-Oct-18 17:26 33.812027 -117.440651 138 7554ft 178kts
16-Oct-18 17:27 33.771644 -117.406889 139 8034ft 176kts
16-Oct-18 17:28 33.731337 -117.373266 138 8519ft 177kts
16-Oct-18 17:29 33.691346 -117.339778 138 9000ft 178kts
16-Oct-18 17:30 33.648502 -117.304080 139 9047ft 194kts
16-Oct-18 17:31 33.603846 -117.266836 139 9045ft 198kts
16-Oct-18 17:32 33.558498 -117.229036 140 9037ft 201kts
16-Oct-18 17:33 33.512608 -117.190800 142 9026ft 203kts
16-Oct-18 17:34 33.463634 -117.158043 171 9017ft 205kts
16-Oct-18 17:35 33.407451 -117.146410 171 8985ft 205kts
16-Oct-18 17:36 33.351728 -117.134836 170 8982ft 204kts
16-Oct-18 17:37 33.295743 -117.123033 168 8983ft 203kts
16-Oct-18 17:38 33.240507 -117.111347 167 8984ft 202kts
16-Oct-18 17:39 33.185271 -117.099638 167 8986ft 201kts
16-Oct-18 17:40 33.130463 -117.087960 167 8987ft 201kts
16-Oct-18 17:41 33.076587 -117.063728 150 8373ft 214kts
16-Oct-18 17:42 33.023057 -117.031726 150 7686ft 216kts
16-Oct-18 17:43 32.969951 -116.999149 150 7028ft 212kts
16-Oct-18 17:44 32.920253 -116.968543 150 6993ft 195kts
16-Oct-18 17:45 32.873045 -116.939175 150 6982ft 192kts
16-Oct-18 17:46 32.826603 -116.909280 150 6352ft 188kts
16-Oct-18 17:47 32.782076 -116.878903 150 5641ft 179kts
16-Oct-18 17:48 32.739967 -116.849254 150 4992ft 168kts
16-Oct-18 17:49 32.701443 -116.822546 161 4974ft 157kts
16-Oct-18 17:50 32.675732 -116.852060 250 4983ft 141kts
16-Oct-18 17:51 32.661373 -116.895768 253 4820ft 149kts
16-Oct-18 17:52 32.672935 -116.941046 287 4179ft 153kts
16-Oct-18 17:53 32.684026 -116.987033 285 3519ft 136kts
16-Oct-18 17:54 32.694686 -117.030541 285 2819ft 136kts
16-Oct-18 17:55 32.704475 -117.070469 286 2027ft 114kts
16-Oct-18 17:56 32.713736 -117.109529 286 1395ft 132kts
16-Oct-18 17:57 32.723587 -117.148963 286 688ft 90kts
16-Oct-18 17:58 32.729667 -117.173886 287 168ft 77kts
16-Oct-18 17:59 32.734294 -117.190957 1 17ft 17kts
16-Oct-18 18:00 32.733747 -117.185602 107 17ft 27kts
16-Oct-18 18:01 32.732012 -117.178485 107 20ft 21kts
16-Oct-18 18:02 32.732323 -117.177295 17 20ft 0kts

Navigation Log

Ident Type
1. KEMT Airport
2. PDZ Navaid
3. NIKKL Fix
4. WESIN Fix
5. TANNR Fix
6. DEGLE Fix
7. ROBNN Fix
8. HAILE Fix
9. MZB Navaid
10. KSAN Airport